createdAt,value
2023-02-05T00:17:12.972Z,18.6
2023-02-05T00:37:12.957Z,18.6
2023-02-05T00:57:12.995Z,18.5
2023-02-05T01:17:12.909Z,18.5
2023-02-05T01:37:12.900Z,18.4
2023-02-05T01:57:12.837Z,18.4
2023-02-05T02:17:12.841Z,18.4
2023-02-05T02:37:12.810Z,18.3
2023-02-05T02:57:12.789Z,18.3
2023-02-05T03:17:12.754Z,18.2
2023-02-05T03:37:12.746Z,18.2
2023-02-05T03:57:12.699Z,18.2
2023-02-05T04:17:12.707Z,18.2
2023-02-05T04:37:12.654Z,18.1
2023-02-05T04:57:12.653Z,18.1
2023-02-05T05:17:12.633Z,18.3
2023-02-05T05:37:12.595Z,18.6
2023-02-05T05:57:12.559Z,18.8
2023-02-05T06:17:12.533Z,18.9
2023-02-05T06:37:12.554Z,19.1
2023-02-05T06:57:12.494Z,19.1
2023-02-05T07:17:12.504Z,19.2
2023-02-05T07:37:12.466Z,19.3
2023-02-05T07:57:12.435Z,19.4
2023-02-05T08:17:12.389Z,19.4
2023-02-05T08:37:12.409Z,19.7
2023-02-05T08:57:12.323Z,20.0
2023-02-05T09:17:12.319Z,20.2
2023-02-05T09:37:12.324Z,20.3
2023-02-05T09:57:12.238Z,20.3
2023-02-05T10:17:12.258Z,20.4
2023-02-05T10:37:12.376Z,20.4
2023-02-05T10:57:12.232Z,20.5
2023-02-05T11:17:12.298Z,20.3
2023-02-05T11:37:12.117Z,20.3
2023-02-05T11:57:12.099Z,20.2
2023-02-05T12:17:12.108Z,20.2
2023-02-05T12:37:12.040Z,20.2
2023-02-05T12:57:12.041Z,20.2
2023-02-05T13:17:12.033Z,20.2
2023-02-05T13:37:11.973Z,20.2
2023-02-05T13:57:11.933Z,20.2
2023-02-05T14:17:11.941Z,20.2
2023-02-05T14:37:11.956Z,20.2
2023-02-05T14:57:11.865Z,20.3
2023-02-05T15:17:11.848Z,20.3
2023-02-05T15:37:11.830Z,20.3
2023-02-05T15:57:11.774Z,20.2
2023-02-05T16:17:11.766Z,20.3
2023-02-05T16:37:11.724Z,20.5
2023-02-05T16:57:11.725Z,20.6
2023-02-05T17:17:11.694Z,20.7
2023-02-05T17:37:11.703Z,20.6
2023-02-05T17:57:11.642Z,20.6
2023-02-05T18:17:11.649Z,20.6
2023-02-05T18:37:11.607Z,20.7
2023-02-05T18:57:11.543Z,20.8
2023-02-05T19:17:11.541Z,20.9
2023-02-05T19:37:11.492Z,20.7
2023-02-05T19:57:11.511Z,20.5
2023-02-05T20:17:11.465Z,20.3
2023-02-05T20:37:11.433Z,20.2
2023-02-05T20:57:11.424Z,20.0
2023-02-05T21:17:11.370Z,19.9
2023-02-05T21:37:11.381Z,19.7
2023-02-05T21:57:11.383Z,19.6
2023-02-05T22:17:11.325Z,19.4
2023-02-05T22:37:11.257Z,19.3
2023-02-05T22:57:11.245Z,19.2
2023-02-05T23:17:11.301Z,19.2
2023-02-05T23:37:11.215Z,19.1
2023-02-05T23:57:11.174Z,19.0
